Time;durP1;ratioP1;P1;durP2;ratioP2;P2;SDS_P1;SDS_P2;PMS_P1;PMS_P2;Temp;Humidity;BMP_temperature;BMP_pressure;BME280_temperature;BME280_humidity;BME280_pressure;Samples;Min_cycle;Max_cycle;Signal;HPM_P1;HPM_P2
2021/05/07 00:00:59;;;;;;;48.20;26.30;;;12.50;68.40;;;;;;4991168;28;20042;-81
2021/05/07 00:03:25;;;;;;;23.57;14.87;;;12.50;68.40;;;;;;5003988;28;20108;-81
2021/05/07 00:05:55;;;;;;;16.03;10.20;;;12.50;68.40;;;;;;5000173;28;20026;-81
2021/05/07 00:08:25;;;;;;;9.47;6.60;;;12.50;68.50;;;;;;4987920;28;20029;-81
2021/05/07 00:10:51;;;;;;;10.07;6.20;;;12.50;68.70;;;;;;5002130;28;20163;-81
2021/05/07 00:13:17;;;;;;;11.17;5.17;;;12.40;68.70;;;;;;4991186;28;20430;-80
2021/05/07 00:15:42;;;;;;;10.23;5.97;;;12.30;69.00;;;;;;4992936;28;20060;-81
2021/05/07 00:18:08;;;;;;;7.67;5.77;;;12.30;69.00;;;;;;4994170;28;20049;-81
2021/05/07 00:20:34;;;;;;;8.17;6.40;;;12.40;69.10;;;;;;5001408;28;20453;-81
2021/05/07 00:23:00;;;;;;;10.50;5.90;;;12.40;69.10;;;;;;4995423;28;20120;-81
2021/05/07 00:25:26;;;;;;;12.40;6.70;;;12.30;69.20;;;;;;4995604;28;20112;-81
2021/05/07 00:28:19;;;;;;;11.67;7.40;;;12.30;69.20;;;;;;5003185;28;20037;-81
2021/05/07 00:30:45;;;;;;;12.37;7.33;;;12.30;69.50;;;;;;5004634;28;20479;-81
2021/05/07 00:33:12;;;;;;;15.13;8.30;;;12.30;69.50;;;;;;5000214;28;20030;-81
2021/05/07 00:35:38;;;;;;;13.80;8.23;;;12.30;69.60;;;;;;5000984;28;20042;-81
2021/05/07 00:38:04;;;;;;;11.47;8.57;;;12.30;69.70;;;;;;5000224;28;20089;-81
2021/05/07 00:40:30;;;;;;;13.00;9.30;;;12.20;69.80;;;;;;4993231;28;20176;-81
2021/05/07 00:42:56;;;;;;;13.93;10.10;;;12.20;70.10;;;;;;4988220;28;20030;-81
2021/05/07 00:45:23;;;;;;;18.00;11.70;;;12.20;70.20;;;;;;4984920;28;20459;-81
2021/05/07 00:47:58;;;;;;;20.20;16.57;;;12.10;70.10;;;;;;4981694;28;20053;-81
2021/05/07 00:50:32;;;;;;;24.63;16.53;;;12.10;70.40;;;;;;5003695;28;20433;-81
2021/05/07 00:53:02;;;;;;;16.20;14.23;;;12.10;70.40;;;;;;4998573;28;20096;-81
2021/05/07 00:55:29;;;;;;;19.80;15.23;;;12.10;70.30;;;;;;4996141;28;20471;-81
2021/05/07 00:57:56;;;;;;;21.57;15.50;;;12.10;70.50;;;;;;4997235;28;20118;-81
2021/05/07 01:00:23;;;;;;;20.70;16.07;;;12.10;70.50;;;;;;5006046;28;20471;-81
2021/05/07 01:02:50;;;;;;;19.67;16.10;;;12.10;70.30;;;;;;5006727;28;20061;-81
2021/05/07 01:05:16;;;;;;;22.70;17.47;;;12.30;70.10;;;;;;4997052;28;20030;-81
2021/05/07 01:07:42;;;;;;;19.57;17.43;;;12.20;70.00;;;;;;5001370;28;20030;-81
2021/05/07 01:10:10;;;;;;;23.20;17.43;;;12.20;70.10;;;;;;4985605;28;20076;-81
2021/05/07 01:12:37;;;;;;;20.87;15.77;;;12.20;70.00;;;;;;5007365;28;20029;-81
2021/05/07 01:15:11;;;;;;;20.10;13.70;;;12.20;70.10;;;;;;4997811;28;20105;-81
2021/05/07 01:17:44;;;;;;;27.90;15.63;;;12.20;70.20;;;;;;4996939;28;20039;-81
2021/05/07 01:20:30;;;;;;;30.53;18.40;;;12.20;70.10;;;;;;5000389;28;20498;-81
2021/05/07 01:22:59;;;;;;;29.87;17.03;;;12.20;70.20;;;;;;4998541;28;20034;-81
2021/05/07 01:25:30;;;;;;;31.73;18.10;;;12.20;70.00;;;;;;4997180;28;20044;-81
2021/05/07 01:28:00;;;;;;;41.20;20.23;;;12.20;70.10;;;;;;5003710;28;20042;-81
2021/05/07 01:30:31;;;;;;;44.33;25.60;;;12.20;70.00;;;;;;4992604;28;20034;-81
2021/05/07 01:32:58;;;;;;;27.00;17.33;;;12.20;69.80;;;;;;4988206;28;20045;-81
2021/05/07 01:35:26;;;;;;;19.83;11.13;;;12.20;69.90;;;;;;5013068;28;20038;-81
2021/05/07 01:37:54;;;;;;;12.50;9.27;;;12.20;70.00;;;;;;4985913;28;20076;-81
2021/05/07 01:40:28;;;;;;;10.40;8.27;;;12.20;70.10;;;;;;4987411;28;20077;-81
2021/05/07 01:42:54;;;;;;;11.37;7.27;;;12.20;70.30;;;;;;4988422;28;20476;-81
2021/05/07 01:45:23;;;;;;;10.13;7.73;;;12.20;70.30;;;;;;5014057;28;20474;-81
2021/05/07 01:47:50;;;;;;;11.50;7.90;;;12.20;70.30;;;;;;4991242;28;20034;-81
2021/05/07 01:50:19;;;;;;;10.63;8.60;;;12.20;70.20;;;;;;4997959;28;20031;-81
2021/05/07 01:52:45;;;;;;;12.83;7.80;;;12.10;70.10;;;;;;4999546;28;20041;-81
2021/05/07 01:55:14;;;;;;;12.83;7.57;;;12.00;70.30;;;;;;4988467;28;20034;-81
2021/05/07 01:57:40;;;;;;;11.80;8.10;;;12.10;70.50;;;;;;5009248;28;20436;-81
2021/05/07 02:00:14;;;;;;;10.87;7.63;;;12.10;70.30;;;;;;4988857;28;20063;-81
2021/05/07 02:02:41;;;;;;;13.13;8.83;;;12.10;70.40;;;;;;4997997;28;20026;-81
2021/05/07 02:05:09;;;;;;;15.93;10.13;;;12.10;70.50;;;;;;5008102;28;20034;-81
2021/05/07 02:07:35;;;;;;;12.83;9.20;;;12.00;70.50;;;;;;5007674;28;20125;-81
2021/05/07 02:10:00;;;;;;;11.87;9.53;;;11.90;70.60;;;;;;5002357;28;20057;-81
2021/05/07 02:12:27;;;;;;;11.60;9.27;;;11.90;70.60;;;;;;5008710;28;20041;-81
2021/05/07 02:14:53;;;;;;;13.73;10.90;;;12.00;70.50;;;;;;4999491;28;20030;-81
2021/05/07 02:17:19;;;;;;;14.03;11.17;;;12.00;70.40;;;;;;4994518;28;20033;-81
2021/05/07 02:19:44;;;;;;;17.10;12.30;;;12.00;70.30;;;;;;5007506;28;20575;-81
2021/05/07 02:22:10;;;;;;;19.53;11.13;;;12.00;70.30;;;;;;4989442;28;20487;-81
2021/05/07 02:24:37;;;;;;;19.40;12.17;;;12.00;70.40;;;;;;4999003;28;20030;-81
2021/05/07 02:27:04;;;;;;;16.33;11.23;;;12.00;70.50;;;;;;4993859;28;20112;-81
2021/05/07 02:29:30;;;;;;;11.87;9.43;;;12.00;70.50;;;;;;4996087;28;20048;-80
2021/05/07 02:31:56;;;;;;;12.37;10.20;;;11.90;70.50;;;;;;4995991;28;20037;-81
2021/05/07 02:34:21;;;;;;;15.53;10.93;;;11.90;70.40;;;;;;5000330;28;20494;-81
2021/05/07 02:36:47;;;;;;;15.87;11.57;;;12.00;70.50;;;;;;5003852;28;20050;-81
2021/05/07 02:39:16;;;;;;;16.97;12.67;;;11.90;70.60;;;;;;4989541;28;20035;-81
2021/05/07 02:41:43;;;;;;;15.63;12.27;;;11.90;70.80;;;;;;5004320;28;20118;-80
2021/05/07 02:44:09;;;;;;;19.77;12.20;;;11.90;71.00;;;;;;5000003;28;20097;-80
2021/05/07 02:46:36;;;;;;;19.60;12.93;;;11.90;71.60;;;;;;4984364;28;20373;-81
2021/05/07 02:49:06;;;;;;;17.80;13.60;;;11.80;71.10;;;;;;4983303;28;20031;-81
2021/05/07 02:51:33;;;;;;;17.47;13.07;;;11.80;71.20;;;;;;5007478;28;20034;-81
2021/05/07 02:54:01;;;;;;;20.90;15.13;;;11.80;71.20;;;;;;4999077;28;20042;-81
2021/05/07 02:56:27;;;;;;;15.70;11.33;;;11.80;71.10;;;;;;4983226;28;20038;-81
2021/05/07 02:58:53;;;;;;;19.23;10.40;;;11.80;71.10;;;;;;5008346;28;20030;-78
2021/05/07 03:01:19;;;;;;;15.37;10.70;;;11.80;71.20;;;;;;4993204;28;20030;-82
2021/05/07 03:03:45;;;;;;;13.80;10.83;;;11.80;71.10;;;;;;4992106;28;20110;-81
2021/05/07 03:06:11;;;;;;;15.10;12.03;;;11.90;71.20;;;;;;4985912;28;20497;-82
2021/05/07 03:08:39;;;;;;;15.83;12.07;;;11.90;71.10;;;;;;4995686;28;20040;-82
2021/05/07 03:11:06;;;;;;;17.03;12.20;;;11.80;71.10;;;;;;5005540;28;20491;-82
2021/05/07 03:13:32;;;;;;;14.40;11.17;;;11.80;71.30;;;;;;4996954;28;20041;-82
2021/05/07 03:15:58;;;;;;;14.57;11.47;;;11.80;71.30;;;;;;4990408;28;20120;-82
2021/05/07 03:18:24;;;;;;;14.10;9.93;;;11.80;71.20;;;;;;4998753;28;20803;-82
2021/05/07 03:20:51;;;;;;;13.80;10.57;;;11.80;71.10;;;;;;5001052;28;20117;-82
2021/05/07 03:23:17;;;;;;;16.00;10.80;;;11.80;71.20;;;;;;4981855;28;20023;-82
2021/05/07 03:25:44;;;;;;;13.67;10.43;;;11.80;71.10;;;;;;4999170;28;20389;-82
2021/05/07 03:28:11;;;;;;;12.80;9.70;;;11.80;71.20;;;;;;4995604;28;20034;-82
2021/05/07 03:30:37;;;;;;;19.13;10.97;;;11.80;71.20;;;;;;5003321;28;20038;-82
2021/05/07 03:33:05;;;;;;;18.80;14.20;;;11.70;71.40;;;;;;5002506;28;20448;-82
2021/05/07 03:35:32;;;;;;;18.03;13.10;;;11.70;71.60;;;;;;4999790;28;20076;-82
2021/05/07 03:37:58;;;;;;;21.37;15.83;;;11.70;71.70;;;;;;5001905;28;20054;-82
2021/05/07 03:40:24;;;;;;;28.33;17.70;;;11.70;71.70;;;;;;5014479;28;20036;-82
2021/05/07 03:42:51;;;;;;;20.10;14.43;;;11.70;71.60;;;;;;5003996;28;20033;-82
2021/05/07 03:45:17;;;;;;;20.03;13.53;;;11.70;71.60;;;;;;5005160;28;20080;-82
2021/05/07 03:47:43;;;;;;;20.60;13.63;;;11.70;71.70;;;;;;4993546;28;20037;-82
2021/05/07 03:50:11;;;;;;;19.43;13.37;;;11.60;71.60;;;;;;4995930;28;20497;-82
2021/05/07 03:52:52;;;;;;;28.17;19.60;;;11.60;71.70;;;;;;4991639;28;20026;-82
2021/05/07 03:55:17;;;;;;;27.00;19.33;;;11.60;71.90;;;;;;5002474;28;20042;-82
2021/05/07 03:57:43;;;;;;;23.50;17.87;;;11.70;71.70;;;;;;5014890;28;20034;-82
2021/05/07 04:00:11;;;;;;;24.07;17.50;;;11.70;71.60;;;;;;5007280;28;20030;-82
2021/05/07 04:02:37;;;;;;;23.00;17.07;;;11.70;71.50;;;;;;4995253;28;20393;-80
2021/05/07 04:05:04;;;;;;;25.73;19.43;;;11.70;71.50;;;;;;5003194;28;20100;-80
2021/05/07 04:07:30;;;;;;;24.77;19.00;;;11.70;71.40;;;;;;4990546;28;20447;-82
2021/05/07 04:10:08;;;;;;;23.87;17.57;;;11.70;71.50;;;;;;4985712;28;20045;-82
2021/05/07 04:15:03;;;;;;;29.53;19.00;;;11.60;71.70;;;;;;5002505;28;20037;-81
2021/05/07 04:17:28;;;;;;;30.47;20.40;;;11.60;71.70;;;;;;4993828;28;20042;-79
2021/05/07 04:19:54;;;;;;;29.50;20.30;;;11.60;71.80;;;;;;5008033;28;20616;-80
2021/05/07 04:22:20;;;;;;;25.43;18.70;;;11.70;71.70;;;;;;4995033;28;20085;-79
2021/05/07 04:24:45;;;;;;;25.50;16.73;;;11.60;71.70;;;;;;5003183;28;20117;-80
2021/05/07 04:27:12;;;;;;;25.63;19.20;;;11.60;71.70;;;;;;4986790;28;20034;-79
2021/05/07 04:29:38;;;;;;;26.97;18.17;;;11.60;71.90;;;;;;4995586;28;20056;-79
2021/05/07 04:32:04;;;;;;;28.73;18.83;;;11.70;72.00;;;;;;4996151;28;20038;-81
2021/05/07 04:34:29;;;;;;;23.93;17.43;;;11.70;71.80;;;;;;5003438;28;20033;-82
2021/05/07 04:36:55;;;;;;;23.67;17.90;;;11.80;71.90;;;;;;4997912;28;20046;-82
2021/05/07 04:39:21;;;;;;;23.33;17.23;;;11.90;71.70;;;;;;5010400;28;20101;-81
2021/05/07 04:41:47;;;;;;;21.60;14.37;;;11.90;71.60;;;;;;4998225;28;20490;-81
2021/05/07 04:44:13;;;;;;;17.60;13.83;;;11.90;71.50;;;;;;4993090;28;20044;-82
2021/05/07 04:46:38;;;;;;;19.77;13.43;;;11.90;71.50;;;;;;4982582;28;20129;-82
2021/05/07 04:49:04;;;;;;;20.80;13.87;;;12.00;71.60;;;;;;4991717;28;21447;-81
2021/05/07 04:51:30;;;;;;;20.00;14.57;;;11.90;71.70;;;;;;5003061;28;20108;-81
2021/05/07 04:53:58;;;;;;;20.83;14.43;;;12.00;71.80;;;;;;5005118;28;20041;-81
2021/05/07 04:56:24;;;;;;;20.17;13.80;;;11.90;71.70;;;;;;4999744;28;20836;-82
2021/05/07 04:58:50;;;;;;;20.33;13.00;;;11.90;71.60;;;;;;4999523;28;20041;-82
2021/05/07 05:01:15;;;;;;;19.63;13.70;;;11.90;71.60;;;;;;4994035;28;20039;-82
2021/05/07 05:03:41;;;;;;;20.67;14.63;;;11.90;71.80;;;;;;5001241;28;20030;-82
2021/05/07 05:06:07;;;;;;;18.13;13.63;;;11.90;71.90;;;;;;4999135;28;20031;-82
2021/05/07 05:08:33;;;;;;;21.43;15.17;;;11.90;72.00;;;;;;4997462;28;20041;-82
2021/05/07 05:10:59;;;;;;;24.27;17.53;;;11.90;71.90;;;;;;5000863;28;20109;-82
2021/05/07 05:13:26;;;;;;;23.43;17.47;;;11.90;71.90;;;;;;4997783;28;20443;-82
2021/05/07 05:15:56;;;;;;;27.80;17.80;;;11.90;71.90;;;;;;4999945;28;20031;-81
2021/05/07 05:18:27;;;;;;;22.03;17.20;;;12.00;72.10;;;;;;4994558;28;20121;-82
2021/05/07 05:21:02;;;;;;;15.20;11.43;;;12.00;72.10;;;;;;4993526;28;20027;-81
2021/05/07 05:23:29;;;;;;;12.07;8.87;;;12.10;72.00;;;;;;4991761;28;20026;-82
2021/05/07 05:25:55;;;;;;;10.20;7.53;;;12.20;71.70;;;;;;4986888;28;20167;-83
2021/05/07 05:28:22;;;;;;;13.60;8.40;;;12.20;71.40;;;;;;4992509;28;20026;-82
2021/05/07 05:30:48;;;;;;;9.83;8.27;;;12.20;71.30;;;;;;4988063;28;20042;-82
2021/05/07 05:33:14;;;;;;;10.63;8.03;;;12.20;71.10;;;;;;4999066;28;20503;-82
2021/05/07 05:35:40;;;;;;;13.50;8.50;;;12.30;71.20;;;;;;5006698;28;20031;-82
2021/05/07 05:38:06;;;;;;;10.43;8.17;;;12.30;71.30;;;;;;4997729;28;20034;-82
2021/05/07 05:40:32;;;;;;;14.60;9.37;;;12.30;71.20;;;;;;4992393;28;20479;-82
2021/05/07 05:42:58;;;;;;;14.53;8.40;;;12.40;71.30;;;;;;4986263;28;20167;-82
2021/05/07 05:45:25;;;;;;;18.10;9.90;;;12.40;71.20;;;;;;5000571;28;20384;-82
2021/05/07 05:48:05;;;;;;;13.90;10.67;;;12.40;71.40;;;;;;4981345;28;20514;-82
2021/05/07 05:50:31;;;;;;;20.27;13.33;;;12.50;71.60;;;;;;4996435;28;20168;-82
2021/05/07 05:52:58;;;;;;;21.83;14.07;;;12.50;71.60;;;;;;4995492;28;20068;-82
2021/05/07 05:55:24;;;;;;;18.30;13.60;;;12.60;71.90;;;;;;4990780;28;20034;-78
2021/05/07 05:57:51;;;;;;;21.10;14.53;;;12.60;71.90;;;;;;4999045;28;20034;-79
2021/05/07 06:00:18;;;;;;;20.63;13.80;;;12.60;71.80;;;;;;4996802;28;20483;-79
2021/05/07 06:02:44;;;;;;;18.33;13.33;;;12.70;71.80;;;;;;4987292;28;20488;-79
2021/05/07 06:05:11;;;;;;;16.90;13.13;;;12.70;71.60;;;;;;4995408;28;20031;-80
2021/05/07 06:07:38;;;;;;;21.43;14.87;;;12.60;71.50;;;;;;4984941;28;20035;-80
2021/05/07 06:10:05;;;;;;;24.17;15.00;;;12.70;71.50;;;;;;4996427;28;20042;-80
2021/05/07 06:12:31;;;;;;;23.33;15.87;;;12.70;71.50;;;;;;4978273;28;20129;-79
2021/05/07 06:14:57;;;;;;;18.70;14.63;;;12.70;71.40;;;;;;4990163;28;20034;-80
2021/05/07 06:17:22;;;;;;;17.57;14.47;;;12.70;71.50;;;;;;4985966;28;20037;-81
2021/05/07 06:19:48;;;;;;;18.87;14.80;;;12.70;71.50;;;;;;4983518;28;20093;-80
2021/05/07 06:22:14;;;;;;;17.90;14.60;;;12.70;71.40;;;;;;4987520;28;20380;-81
2021/05/07 06:24:40;;;;;;;21.17;15.03;;;12.80;71.40;;;;;;4978328;28;20038;-80
2021/05/07 06:27:06;;;;;;;18.93;14.10;;;12.80;71.30;;;;;;4984312;28;20439;-81
2021/05/07 06:29:31;;;;;;;19.97;14.97;;;12.90;71.20;;;;;;5000492;28;20025;-81
2021/05/07 06:31:57;;;;;;;22.27;15.07;;;13.00;71.10;;;;;;4981734;28;20087;-80
2021/05/07 06:34:23;;;;;;;16.97;13.80;;;13.00;71.00;;;;;;4987106;28;20041;-80
2021/05/07 06:36:49;;;;;;;16.27;13.97;;;13.00;70.90;;;;;;4990838;28;20051;-80
2021/05/07 06:39:15;;;;;;;16.70;12.77;;;13.10;70.90;;;;;;4984764;28;20042;-81
2021/05/07 06:41:41;;;;;;;16.03;12.70;;;13.10;70.80;;;;;;4985408;28;20401;-80
2021/05/07 06:44:07;;;;;;;14.87;10.00;;;13.10;70.70;;;;;;4989683;28;20033;-81
2021/05/07 06:46:33;;;;;;;12.30;9.47;;;13.00;70.70;;;;;;4997522;28;22097;-80
2021/05/07 06:48:59;;;;;;;9.37;8.00;;;13.00;70.70;;;;;;5000656;28;20030;-81
2021/05/07 06:51:27;;;;;;;16.53;9.17;;;13.10;70.60;;;;;;4996387;28;20026;-80
2021/05/07 06:53:54;;;;;;;11.47;7.97;;;13.10;70.20;;;;;;4987328;28;20037;-81
2021/05/07 06:56:23;;;;;;;10.87;8.33;;;13.10;70.10;;;;;;4994770;28;20613;-81
2021/05/07 06:58:49;;;;;;;11.20;9.27;;;13.20;70.00;;;;;;4991747;28;20034;-80
2021/05/07 07:01:15;;;;;;;10.93;7.60;;;13.30;69.80;;;;;;4989134;28;20021;-81
2021/05/07 07:03:41;;;;;;;9.60;7.17;;;13.40;69.60;;;;;;5001881;28;20029;-81
2021/05/07 07:06:07;;;;;;;8.90;6.63;;;13.40;69.40;;;;;;5002382;28;20098;-81
2021/05/07 07:08:33;;;;;;;9.73;5.67;;;13.60;69.50;;;;;;4988424;28;20034;-81
2021/05/07 07:10:59;;;;;;;8.33;6.40;;;13.80;68.80;;;;;;4987021;28;20085;-81
2021/05/07 07:13:31;;;;;;;14.23;9.20;;;14.00;68.60;;;;;;4987449;28;20031;-81
2021/05/07 07:16:05;;;;;;;13.73;9.67;;;14.10;68.60;;;;;;4993040;28;20089;-81
2021/05/07 07:18:31;;;;;;;9.83;7.53;;;14.20;68.70;;;;;;4994354;28;20031;-81
2021/05/07 07:21:04;;;;;;;9.83;8.20;;;14.30;68.50;;;;;;4980881;28;20037;-81
2021/05/07 07:23:33;;;;;;;9.87;8.23;;;14.40;68.90;;;;;;4989334;28;20130;-81
2021/05/07 07:25:59;;;;;;;12.47;8.03;;;14.50;68.30;;;;;;4989709;28;20116;-81
2021/05/07 07:29:00;;;;;;;12.00;8.70;;;14.60;68.40;;;;;;4991308;28;20113;-81
2021/05/07 07:31:26;;;;;;;11.27;9.03;;;14.80;68.10;;;;;;4988550;28;20483;-81
2021/05/07 07:33:52;;;;;;;12.43;7.57;;;14.90;67.90;;;;;;4995563;28;20037;-81
2021/05/07 07:36:18;;;;;;;8.90;7.03;;;15.00;67.50;;;;;;4990259;28;20387;-81
2021/05/07 07:38:43;;;;;;;7.50;6.70;;;15.10;67.20;;;;;;4996249;28;20065;-81
2021/05/07 07:41:10;;;;;;;11.50;7.83;;;15.10;66.70;;;;;;4981017;28;20394;-81
2021/05/07 07:43:36;;;;;;;9.67;7.90;;;15.20;66.20;;;;;;4983392;28;20023;-81
2021/05/07 07:46:02;;;;;;;9.80;7.50;;;15.30;66.10;;;;;;4990057;28;20530;-82
2021/05/07 07:48:28;;;;;;;11.57;9.80;;;15.30;65.50;;;;;;4976892;28;20023;-82
2021/05/07 07:50:54;;;;;;;17.50;13.40;;;15.30;65.10;;;;;;4977036;28;20030;-81
2021/05/07 07:53:20;;;;;;;13.00;9.43;;;15.20;64.90;;;;;;4980306;28;20387;-81
2021/05/07 07:55:45;;;;;;;19.13;15.23;;;15.00;65.10;;;;;;4978711;28;20049;-81
2021/05/07 07:58:11;;;;;;;16.17;12.03;;;15.20;65.30;;;;;;4975692;28;20030;-81
2021/05/07 08:00:37;;;;;;;17.83;12.90;;;15.40;65.10;;;;;;4979955;28;20049;-81
2021/05/07 08:03:03;;;;;;;14.27;10.93;;;15.60;64.80;;;;;;4975432;28;20097;-81
2021/05/07 08:05:28;;;;;;;16.40;12.07;;;15.80;64.20;;;;;;4979098;28;20036;-82
2021/05/07 08:08:00;;;;;;;12.80;9.40;;;16.00;63.50;;;;;;4980111;28;22610;-81
2021/05/07 08:10:26;;;;;;;10.98;8.15;;;16.20;63.20;;;;;;4992726;28;20082;-81
2021/05/07 08:12:52;;;;;;;10.90;7.88;;;16.30;62.70;;;;;;4977999;28;20039;-81
2021/05/07 08:15:20;;;;;;;10.75;7.32;;;16.60;62.40;;;;;;4985603;28;20109;-82
2021/05/07 08:17:49;;;;;;;9.50;6.45;;;16.70;62.40;;;;;;4982215;28;20045;-82
2021/05/07 08:20:16;;;;;;;8.07;5.97;;;16.80;61.10;;;;;;4991995;28;20022;-82
2021/05/07 08:22:43;;;;;;;9.65;6.40;;;16.90;60.50;;;;;;4985883;28;20026;-82
2021/05/07 08:25:11;;;;;;;8.15;5.22;;;16.90;60.20;;;;;;4976936;28;20018;-81
2021/05/07 08:27:39;;;;;;;8.65;5.63;;;16.90;59.80;;;;;;4977112;28;20396;-81
2021/05/07 08:30:05;;;;;;;8.50;5.38;;;16.80;59.60;;;;;;4993349;28;20573;-81
2021/05/07 08:32:31;;;;;;;11.68;5.97;;;16.60;59.50;;;;;;4978448;28;20533;-81
2021/05/07 08:34:57;;;;;;;10.38;5.25;;;16.50;59.70;;;;;;4976670;28;20023;-81
2021/05/07 08:37:23;;;;;;;10.75;5.97;;;16.40;59.80;;;;;;4981211;28;20049;-82
2021/05/07 08:39:49;;;;;;;9.30;5.80;;;16.50;60.00;;;;;;4982530;28;20062;-82
2021/05/07 08:42:16;;;;;;;5.55;4.10;;;16.60;59.60;;;;;;4992680;28;20439;-81
2021/05/07 08:44:42;;;;;;;6.68;4.00;;;16.70;59.10;;;;;;4998384;28;20027;-81
2021/05/07 08:47:08;;;;;;;6.43;3.90;;;16.80;58.70;;;;;;4994516;28;20034;-82
2021/05/07 08:49:34;;;;;;;6.00;3.70;;;16.80;58.50;;;;;;4989363;28;20031;-82
2021/05/07 08:52:00;;;;;;;6.80;4.38;;;16.70;58.30;;;;;;4982875;28;20042;-82
2021/05/07 08:54:29;;;;;;;8.07;4.20;;;16.60;58.20;;;;;;4979700;28;20037;-82
2021/05/07 08:56:58;;;;;;;9.40;4.15;;;16.50;58.30;;;;;;4988508;28;20767;-82
2021/05/07 08:59:24;;;;;;;9.73;3.90;;;16.30;58.70;;;;;;4991077;28;20034;-82
2021/05/07 09:01:51;;;;;;;8.82;4.28;;;16.20;59.20;;;;;;4977093;28;20046;-82
2021/05/07 09:04:18;;;;;;;10.77;4.50;;;16.20;59.30;;;;;;4986522;28;20030;-82
2021/05/07 09:06:51;;;;;;;14.52;3.70;;;16.40;59.40;;;;;;4996251;28;20439;-82
2021/05/07 09:09:27;;;;;;;5.85;3.00;;;16.50;59.20;;;;;;4982308;28;20026;-82
2021/05/07 09:11:55;;;;;;;4.90;2.45;;;16.60;58.50;;;;;;4988197;28;20053;-82
2021/05/07 09:14:21;;;;;;;5.65;2.55;;;16.80;58.10;;;;;;4990410;28;20030;-82
2021/05/07 09:17:03;;;;;;;4.35;1.90;;;17.00;57.50;;;;;;5000748;28;20030;-82
2021/05/07 09:19:30;;;;;;;3.50;1.90;;;17.40;56.80;;;;;;4988768;28;20045;-82
2021/05/07 09:21:57;;;;;;;3.65;2.58;;;17.50;56.10;;;;;;4983219;28;20026;-81
2021/05/07 09:24:37;;;;;;;3.53;1.95;;;17.70;55.80;;;;;;4974645;28;20475;-81
2021/05/07 09:27:04;;;;;;;5.65;1.70;;;17.70;54.80;;;;;;4994318;28;20114;-81
2021/05/07 09:29:31;;;;;;;2.85;1.60;;;17.70;54.70;;;;;;4996992;28;20037;-81
2021/05/07 09:32:02;;;;;;;4.63;1.45;;;17.50;54.60;;;;;;4988520;28;20030;-81
2021/05/07 09:34:35;;;;;;;4.07;1.60;;;17.40;54.50;;;;;;4972792;28;20027;-81
2021/05/07 09:37:13;;;;;;;8.55;1.75;;;17.20;54.00;;;;;;4989843;28;20070;-81
2021/05/07 09:39:38;;;;;;;4.15;1.38;;;17.00;54.20;;;;;;4995901;28;20031;-81
2021/05/07 09:42:04;;;;;;;4.78;1.85;;;16.90;54.40;;;;;;4990431;28;20034;-81
2021/05/07 09:44:34;;;;;;;4.53;1.50;;;16.80;54.40;;;;;;4991420;28;20530;-82
2021/05/07 09:47:11;;;;;;;7.13;1.90;;;16.60;54.50;;;;;;4983203;28;20060;-81
2021/05/07 09:49:36;;;;;;;2.63;1.50;;;16.30;56.10;;;;;;5002085;28;20031;-81
2021/05/07 09:52:02;;;;;;;5.65;1.42;;;16.30;57.30;;;;;;5010922;28;20172;-81
2021/05/07 09:54:28;;;;;;;3.17;1.47;;;16.20;58.30;;;;;;5002729;28;20064;-81
2021/05/07 09:56:54;;;;;;;4.53;1.47;;;16.10;58.30;;;;;;4983181;28;20475;-81
2021/05/07 09:59:22;;;;;;;2.10;1.43;;;15.90;58.30;;;;;;4994200;28;20160;-81
2021/05/07 10:01:48;;;;;;;2.87;1.67;;;15.90;58.70;;;;;;4988424;28;20022;-81
2021/05/07 10:04:15;;;;;;;3.77;1.50;;;15.90;59.30;;;;;;4988197;28;20065;-82
2021/05/07 10:06:41;;;;;;;3.50;1.45;;;16.00;59.50;;;;;;5008723;28;20037;-82
2021/05/07 10:09:09;;;;;;;2.95;1.90;;;16.10;59.80;;;;;;5005918;28;20034;-81
2021/05/07 10:11:41;;;;;;;3.88;1.65;;;16.30;60.60;;;;;;4998892;28;20038;-82
2021/05/07 10:14:13;;;;;;;3.15;0.40;;;16.30;60.10;;;;;;4982773;28;20517;-81
2021/05/07 10:16:39;;;;;;;2.92;0.30;;;16.30;58.50;;;;;;4980629;28;20166;-80
2021/05/07 10:19:13;;;;;;;0.80;0.20;;;16.20;56.80;;;;;;4984894;28;20027;-81
2021/05/07 10:21:47;;;;;;;5.50;0.13;;;16.00;55.70;;;;;;4985747;28;20476;-81
2021/05/07 10:24:19;;;;;;;0.37;0.20;;;15.80;55.10;;;;;;4992029;28;20051;-81
2021/05/07 10:26:54;;;;;;;0.30;0.10;;;15.70;55.10;;;;;;4977205;28;20439;-81
2021/05/07 10:29:28;;;;;;;1.73;0.20;;;15.70;54.80;;;;;;4995841;28;20026;-81
2021/05/07 10:31:54;;;;;;;0.20;0.10;;;15.20;54.40;;;;;;4991394;28;20076;-81
2021/05/07 10:34:22;;;;;;;0.50;0.10;;;15.10;55.10;;;;;;4976459;28;20433;-81
2021/05/07 10:36:51;;;;;;;0.33;0.10;;;14.80;55.50;;;;;;4975907;28;20045;-82
2021/05/07 10:39:22;;;;;;;0.37;0.00;;;14.70;56.30;;;;;;4976168;28;20023;-82
2021/05/07 10:41:50;;;;;;;1.70;0.20;;;14.50;55.10;;;;;;5007983;28;20102;-82
2021/05/07 10:44:17;;;;;;;0.20;0.03;;;14.20;55.70;;;;;;5008415;28;20521;-82
2021/05/07 10:46:44;;;;;;;0.30;0.20;;;14.00;55.90;;;;;;4982156;28;20081;-82
2021/05/07 10:49:13;;;;;;;0.43;0.10;;;13.90;57.00;;;;;;4984056;28;20026;-81
2021/05/07 10:51:39;;;;;;;0.53;0.20;;;13.90;56.60;;;;;;4975422;28;20069;-81
2021/05/07 10:54:11;;;;;;;1.67;0.20;;;13.70;56.70;;;;;;4975340;28;20031;-81
2021/05/07 10:56:42;;;;;;;0.28;0.13;;;13.60;56.90;;;;;;4978219;28;20046;-81
2021/05/07 10:59:19;;;;;;;0.63;0.10;;;13.40;56.50;;;;;;4994642;28;20396;-80
2021/05/07 11:02:03;;;;;;;0.60;0.20;;;13.40;56.90;;;;;;4990510;28;20062;-80
2021/05/07 11:04:44;;;;;;;1.37;0.67;;;13.30;56.70;;;;;;4997867;28;20021;-79
2021/05/07 11:07:10;;;;;;;5.80;4.17;;;13.30;57.20;;;;;;4977963;28;20027;-80
2021/05/07 11:09:36;;;;;;;2.43;1.80;;;13.30;58.00;;;;;;4987096;28;20034;-79
2021/05/07 11:12:05;;;;;;;7.23;0.70;;;13.30;59.30;;;;;;4981332;28;20033;-79
2021/05/07 11:14:35;;;;;;;1.10;0.67;;;13.50;59.80;;;;;;4994080;28;20031;-79
2021/05/07 11:17:05;;;;;;;3.27;0.50;;;13.60;60.00;;;;;;4988092;28;20383;-79
2021/05/07 11:19:35;;;;;;;2.07;0.27;;;13.70;60.10;;;;;;4990581;28;20070;-80
2021/05/07 11:22:05;;;;;;;0.50;0.10;;;13.70;60.40;;;;;;4981341;28;20066;-80
2021/05/07 11:24:36;;;;;;;0.47;0.10;;;13.70;59.10;;;;;;4981147;28;20054;-79
2021/05/07 11:27:20;;;;;;;0.20;0.10;;;13.70;58.60;;;;;;4999707;28;20034;-79
2021/05/07 11:29:46;;;;;;;0.57;0.20;;;13.90;56.80;;;;;;4995322;28;20027;-79
2021/05/07 11:32:17;;;;;;;0.70;0.10;;;14.00;56.80;;;;;;5010387;28;20110;-79
2021/05/07 11:34:51;;;;;;;0.43;0.20;;;14.30;57.30;;;;;;4991854;28;20030;-79
2021/05/07 11:37:17;;;;;;;0.63;0.10;;;14.30;56.20;;;;;;4982622;28;20492;-80
2021/05/07 11:39:53;;;;;;;0.20;0.10;;;14.40;55.80;;;;;;4973131;28;20023;-80
2021/05/07 11:42:33;;;;;;;1.40;0.50;;;14.60;55.40;;;;;;4980114;28;21006;-80
2021/05/07 11:45:00;;;;;;;0.73;0.40;;;14.60;54.80;;;;;;4992389;28;20014;-80
2021/05/07 11:47:34;;;;;;;1.07;0.40;;;14.70;54.60;;;;;;4983666;28;20372;-80
2021/05/07 11:50:01;;;;;;;0.20;0.20;;;14.90;54.10;;;;;;4998341;28;20030;-80
2021/05/07 11:52:41;;;;;;;0.87;0.10;;;14.90;53.50;;;;;;4995394;28;20033;-79
2021/05/07 11:55:24;;;;;;;0.10;0.10;;;15.00;53.20;;;;;;4994619;28;20062;-80
2021/05/07 11:58:07;;;;;;;0.10;0.10;;;15.10;52.20;;;;;;5009841;28;20491;-80
2021/05/07 12:00:35;;;;;;;1.60;0.70;;;15.20;52.40;;;;;;4999935;28;20045;-80
2021/05/07 12:03:15;;;;;;;1.23;0.37;;;15.30;52.30;;;;;;5006417;28;20026;-79
2021/05/07 12:05:42;;;;;;;1.60;0.47;;;15.50;53.30;;;;;;4993628;28;20468;-79
2021/05/07 12:08:09;;;;;;;0.50;0.20;;;15.50;52.30;;;;;;4980479;28;20022;-79
2021/05/07 12:10:38;;;;;;;0.80;0.20;;;15.50;52.50;;;;;;4990357;28;20045;-79
2021/05/07 12:13:05;;;;;;;2.40;0.90;;;15.40;52.20;;;;;;5006884;28;20026;-79
2021/05/07 12:15:45;;;;;;;0.50;0.23;;;15.50;52.10;;;;;;5007580;28;20118;-80
2021/05/07 12:18:19;;;;;;;0.43;0.20;;;15.50;51.50;;;;;;4991743;28;20030;-80
2021/05/07 12:20:48;;;;;;;0.73;0.50;;;15.60;52.10;;;;;;4996069;28;20093;-80
2021/05/07 12:23:14;;;;;;;0.30;0.17;;;15.50;51.80;;;;;;4979108;28;20031;-80
2021/05/07 12:25:48;;;;;;;1.17;0.40;;;15.70;51.60;;;;;;5007932;28;20019;-80
2021/05/07 12:28:22;;;;;;;1.57;0.30;;;15.70;50.80;;;;;;4979717;28;20038;-80
2021/05/07 12:30:50;;;;;;;0.40;0.30;;;15.80;50.80;;;;;;4979295;28;20026;-81
2021/05/07 12:33:18;;;;;;;1.17;0.70;;;15.90;50.80;;;;;;4986631;28;20034;-81
2021/05/07 12:35:45;;;;;;;1.45;0.10;;;15.90;50.70;;;;;;4991288;28;20038;-81
2021/05/07 12:38:15;;;;;;;0.65;0.30;;;16.00;50.50;;;;;;4999986;28;20042;-80
2021/05/07 12:40:40;;;;;;;0.97;0.20;;;15.90;49.50;;;;;;4985396;28;20591;-80
2021/05/07 12:43:07;;;;;;;2.17;0.25;;;15.60;49.50;;;;;;4972914;28;20131;-80